Bryan's Hourly Summary for Thursday, May 10, 2018
Hour Temp
(f)
RH
(%)
Solar Rad.
(MJ/m2)
Rainfall
(in)
Wind
(mph)
5/10/2018 12:00 AM 72 51 0 0 5.33
5/10/2018 1:00 AM 70 57 0 0 5.09
5/10/2018 2:00 AM 67 65 0 0 3.83
5/10/2018 3:00 AM 66 75 0 0 3.7
5/10/2018 4:00 AM 65 83 0 0 3.54
5/10/2018 5:00 AM 63 87 0 0 0.01
5/10/2018 6:00 AM 62 91 0 0 0.35
5/10/2018 7:00 AM 63 94 0.03 0 1.78
5/10/2018 8:00 AM 64 94 0.51 0 0.66
5/10/2018 9:00 AM 68 89 0.87 0 4.79
5/10/2018 10:00 AM 71 80 1.67 0 6.85
5/10/2018 11:00 AM 75 62 2.69 0 7.45
5/10/2018 12:00 PM 79 48 3.14 0 8.18
5/10/2018 1:00 PM 81 43 3.32 0 8.11
5/10/2018 2:00 PM 83 40 3.27 0 8.14
5/10/2018 3:00 PM 84 37 3.09 0 8.94
5/10/2018 4:00 PM 84 36 2.3 0 7.89
5/10/2018 5:00 PM 84 37 1.62 0 7.19
5/10/2018 6:00 PM 85 36 1.61 0 6.89
5/10/2018 7:00 PM 84 38 0.86 0 7.7
5/10/2018 8:00 PM 82 44 0.27 0 6.01
5/10/2018 9:00 PM 80 49 0 0 6.86
5/10/2018 10:00 PM 78 55 0 0 7.28
5/10/2018 11:00 PM 75 58 0 0 7.16
Data Summary 74 60 25.25 0.00 5.57